createdAt,value
2023-01-10T00:01:48.278Z,85.06
2023-01-10T00:03:52.163Z,84.70
2023-01-10T00:05:57.006Z,84.42
2023-01-10T00:08:02.367Z,83.96
2023-01-10T00:10:06.223Z,83.85
2023-01-10T00:12:26.948Z,83.22
2023-01-10T00:14:33.722Z,82.93
2023-01-10T00:16:39.548Z,82.92
2023-01-10T00:18:42.930Z,82.90
2023-01-10T00:20:47.596Z,82.45
2023-01-10T00:22:52.488Z,82.17
2023-01-10T00:24:56.117Z,82.62
2023-01-10T00:26:59.841Z,82.05
2023-01-10T00:29:04.181Z,82.14
2023-01-10T00:31:08.657Z,82.37
2023-01-10T00:33:21.065Z,82.41
2023-01-10T00:35:25.100Z,82.36
2023-01-10T00:37:28.961Z,81.80
2023-01-10T00:39:34.192Z,82.38
2023-01-10T00:42:09.219Z,82.25
2023-01-10T00:44:12.457Z,81.52
2023-01-10T00:46:15.868Z,82.10
2023-01-10T00:48:19.137Z,82.56
2023-01-10T00:50:22.510Z,82.16
2023-01-10T00:52:25.884Z,81.70
2023-01-10T00:54:29.295Z,81.62
2023-01-10T00:56:34.169Z,80.90
2023-01-10T00:58:37.915Z,80.58
2023-01-10T01:00:41.170Z,79.89
2023-01-10T01:02:44.552Z,80.00
2023-01-10T01:04:48.435Z,79.95
2023-01-10T01:06:52.199Z,80.52
2023-01-10T01:08:55.705Z,80.28
2023-01-10T01:10:59.221Z,80.35
2023-01-10T01:13:08.029Z,80.56
2023-01-10T01:15:12.799Z,80.66
2023-01-10T01:17:16.331Z,81.02
2023-01-10T01:19:19.721Z,80.92
2023-01-10T01:21:28.432Z,81.03
2023-01-10T01:23:31.976Z,81.23
2023-01-10T01:25:35.677Z,81.58
2023-01-10T01:27:40.094Z,81.96
2023-01-10T01:29:45.109Z,81.86
2023-01-10T01:31:48.837Z,82.23
2023-01-10T01:33:52.441Z,83.31
2023-01-10T01:35:56.256Z,83.89
2023-01-10T01:37:59.812Z,84.49
2023-01-10T01:40:03.430Z,84.74
2023-01-10T01:42:07.327Z,85.45
2023-01-10T01:44:16.162Z,86.06
2023-01-10T01:46:21.412Z,85.76
2023-01-10T01:48:31.022Z,86.02
2023-01-10T01:50:36.391Z,85.98
2023-01-10T01:52:40.053Z,85.73
2023-01-10T01:54:44.090Z,85.65
2023-01-10T01:56:51.347Z,85.62
2023-01-10T01:58:56.258Z,85.40
2023-01-10T02:00:59.986Z,85.43
2023-01-10T02:03:07.266Z,85.31
2023-01-10T02:05:12.375Z,85.27
2023-01-10T02:07:16.357Z,85.03
2023-01-10T02:09:22.707Z,85.11
2023-01-10T02:11:26.107Z,85.40
2023-01-10T02:13:29.454Z,85.41
2023-01-10T02:15:32.880Z,85.75
2023-01-10T02:17:36.088Z,86.37
2023-01-10T02:19:49.553Z,86.88
2023-01-10T02:22:16.746Z,87.35
2023-01-10T02:24:40.853Z,87.50
2023-01-10T02:26:59.329Z,87.82
2023-01-10T02:29:32.793Z,88.11
2023-01-10T02:31:44.385Z,87.81
2023-01-10T02:33:51.171Z,87.88
2023-01-10T02:36:05.501Z,88.18
2023-01-10T02:38:15.515Z,88.62
2023-01-10T02:40:23.796Z,88.78
2023-01-10T02:42:30.648Z,88.81
2023-01-10T02:44:37.718Z,89.09
2023-01-10T02:46:41.554Z,90.65
2023-01-10T02:48:44.864Z,90.59
2023-01-10T02:50:54.166Z,90.76
2023-01-10T02:52:58.823Z,90.92
2023-01-10T02:55:03.827Z,91.79
2023-01-10T02:57:23.503Z,92.79
2023-01-10T02:59:39.284Z,93.65
2023-01-10T03:01:49.773Z,92.53
2023-01-10T03:03:58.292Z,93.57
2023-01-10T03:06:10.213Z,94.37
2023-01-10T03:08:20.121Z,94.72
2023-01-10T03:10:27.863Z,95.51
2023-01-10T03:12:34.249Z,96.07
2023-01-10T03:14:39.685Z,96.62
2023-01-10T03:16:45.517Z,97.57
2023-01-10T03:18:50.699Z,98.44
2023-01-10T03:20:55.371Z,99.36
2023-01-10T03:23:02.398Z,99.95
2023-01-10T03:25:07.302Z,100.00
2023-01-10T03:27:12.886Z,100.00
2023-01-10T03:29:20.514Z,100.00
2023-01-10T03:31:25.686Z,100.00
2023-01-10T03:33:31.082Z,100.00
2023-01-10T03:35:37.248Z,100.00
2023-01-10T03:37:45.805Z,100.00
2023-01-10T03:39:55.785Z,100.00
2023-01-10T03:42:04.330Z,100.00
2023-01-10T03:44:31.907Z,100.00
2023-01-10T03:46:37.900Z,100.00
2023-01-10T03:48:44.153Z,100.00
2023-01-10T03:50:47.647Z,100.00
2023-01-10T03:52:51.144Z,100.00
2023-01-10T03:54:55.919Z,100.00
2023-01-10T03:57:00.799Z,100.00
2023-01-10T03:59:05.171Z,100.00
2023-01-10T04:01:08.664Z,100.00
2023-01-10T04:03:12.187Z,100.00
2023-01-10T04:05:15.700Z,100.00
2023-01-10T04:07:19.284Z,100.00
2023-01-10T04:09:22.787Z,100.00
2023-01-10T04:11:27.465Z,100.00
2023-01-10T04:13:30.897Z,100.00
2023-01-10T04:15:34.170Z,100.00
2023-01-10T04:17:37.600Z,100.00
2023-01-10T04:19:40.935Z,100.00
2023-01-10T04:21:44.164Z,100.00
2023-01-10T04:23:47.447Z,100.00
2023-01-10T04:25:50.882Z,100.00
2023-01-10T04:27:55.641Z,100.00
2023-01-10T04:29:59.086Z,100.00
2023-01-10T04:32:02.501Z,100.00
2023-01-10T04:34:05.883Z,100.00
2023-01-10T04:36:09.559Z,100.00
2023-01-10T04:38:13.088Z,100.00
2023-01-10T04:40:19.726Z,100.00
2023-01-10T04:42:23.584Z,100.00
2023-01-10T04:44:28.497Z,100.00
2023-01-10T04:46:32.487Z,100.00
2023-01-10T04:48:37.470Z,100.00
2023-01-10T04:50:40.759Z,100.00
2023-01-10T04:52:43.943Z,100.00
2023-01-10T04:54:47.644Z,100.00
2023-01-10T04:56:50.996Z,100.00
2023-01-10T04:58:54.411Z,100.00
2023-01-10T05:00:59.375Z,100.00
2023-01-10T05:03:02.854Z,100.00
2023-01-10T05:05:06.362Z,100.00
2023-01-10T05:07:10.017Z,100.00
2023-01-10T05:09:13.292Z,100.00
2023-01-10T05:11:16.673Z,100.00
2023-01-10T05:13:19.946Z,100.00
2023-01-10T05:15:23.419Z,100.00
2023-01-10T05:17:28.207Z,100.00
2023-01-10T05:19:31.606Z,100.00
2023-01-10T05:21:34.621Z,100.00
2023-01-10T05:23:37.646Z,100.00
2023-01-10T05:25:40.697Z,100.00
2023-01-10T05:27:44.146Z,100.00
2023-01-10T05:29:47.144Z,100.00
2023-01-10T05:31:51.856Z,100.00
2023-01-10T05:33:56.257Z,100.00
2023-01-10T05:35:59.206Z,100.00
2023-01-10T05:38:02.289Z,100.00
2023-01-10T05:40:05.635Z,100.00
2023-01-10T05:42:08.616Z,100.00
2023-01-10T05:44:13.096Z,100.00
2023-01-10T05:46:17.320Z,100.00
2023-01-10T05:48:20.688Z,100.00
2023-01-10T05:50:25.191Z,100.00
2023-01-10T05:52:28.139Z,100.00
2023-01-10T05:54:31.190Z,100.00
2023-01-10T05:56:34.093Z,100.00
2023-01-10T05:58:37.329Z,100.00
2023-01-10T06:00:40.763Z,100.00
2023-01-10T06:02:43.935Z,100.00
2023-01-10T06:04:46.891Z,100.00
2023-01-10T06:06:51.272Z,100.00
2023-01-10T06:08:56.503Z,100.00
2023-01-10T06:10:59.482Z,100.00
2023-01-10T06:13:02.415Z,100.00
2023-01-10T06:15:05.895Z,100.00
2023-01-10T06:17:10.308Z,100.00
2023-01-10T06:19:13.427Z,100.00
2023-01-10T06:21:16.467Z,100.00
2023-01-10T06:23:21.728Z,100.00
2023-01-10T06:25:24.658Z,100.00
2023-01-10T06:27:27.672Z,100.00
2023-01-10T06:29:30.688Z,100.00
2023-01-10T06:31:33.831Z,100.00
2023-01-10T06:33:36.884Z,100.00
2023-01-10T06:35:40.301Z,100.00
2023-01-10T06:37:43.249Z,100.00
2023-01-10T06:39:47.624Z,100.00
2023-01-10T06:41:50.776Z,100.00
2023-01-10T06:43:53.974Z,100.00
2023-01-10T06:45:57.035Z,100.00
2023-01-10T06:48:00.089Z,100.00
2023-01-10T06:50:03.093Z,100.00
2023-01-10T06:52:06.219Z,100.00
2023-01-10T06:54:09.373Z,100.00
2023-01-10T06:56:13.738Z,100.00
2023-01-10T06:58:18.628Z,100.00
2023-01-10T07:00:22.220Z,100.00
2023-01-10T07:02:25.172Z,100.00
2023-01-10T07:04:28.131Z,100.00
2023-01-10T07:06:31.515Z,100.00
2023-01-10T07:08:34.379Z,100.00
2023-01-10T07:10:37.477Z,100.00
2023-01-10T07:12:41.841Z,100.00
2023-01-10T07:14:44.892Z,100.00
2023-01-10T07:16:47.915Z,100.00
2023-01-10T07:18:50.967Z,100.00
2023-01-10T07:20:55.578Z,100.00
2023-01-10T07:22:59.557Z,100.00
2023-01-10T07:25:02.549Z,100.00
2023-01-10T07:27:05.551Z,100.00
2023-01-10T07:29:10.171Z,100.00
2023-01-10T07:31:13.747Z,100.00
2023-01-10T07:33:16.965Z,100.00
2023-01-10T07:35:19.919Z,100.00
2023-01-10T07:37:22.907Z,100.00
2023-01-10T07:39:25.871Z,100.00
2023-01-10T07:41:29.014Z,100.00
2023-01-10T07:43:35.217Z,100.00
2023-01-10T07:45:39.703Z,100.00
2023-01-10T07:47:42.744Z,100.00
2023-01-10T07:49:45.657Z,100.00
2023-01-10T07:51:48.703Z,100.00
2023-01-10T07:53:51.625Z,100.00
2023-01-10T07:55:54.882Z,100.00
2023-01-10T07:57:58.244Z,100.00
2023-01-10T08:00:01.370Z,100.00
2023-01-10T08:02:05.789Z,100.00
2023-01-10T08:04:08.856Z,100.00
2023-01-10T08:06:13.139Z,100.00
2023-01-10T08:08:17.517Z,100.00
2023-01-10T08:10:20.499Z,100.00
2023-01-10T08:12:24.774Z,100.00
2023-01-10T08:14:27.821Z,100.00
2023-01-10T08:16:30.790Z,100.00
2023-01-10T08:18:35.374Z,100.00
2023-01-10T08:20:38.834Z,100.00
2023-01-10T08:22:42.021Z,100.00
2023-01-10T08:24:44.992Z,100.00
2023-01-10T08:26:47.968Z,100.00
2023-01-10T08:28:50.946Z,100.00
2023-01-10T08:30:55.848Z,100.00
2023-01-10T08:32:58.877Z,100.00
2023-01-10T08:35:03.414Z,100.00
2023-01-10T08:37:06.367Z,100.00
2023-01-10T08:39:09.457Z,100.00
2023-01-10T08:41:12.585Z,100.00
2023-01-10T08:43:15.881Z,100.00
2023-01-10T08:45:18.869Z,100.00
2023-01-10T08:47:21.895Z,100.00
2023-01-10T08:49:24.963Z,100.00
2023-01-10T08:51:29.401Z,100.00
2023-01-10T08:53:32.369Z,100.00
2023-01-10T08:55:36.465Z,100.00
2023-01-10T08:57:39.360Z,100.00
2023-01-10T08:59:42.354Z,100.00
2023-01-10T09:01:45.553Z,100.00
2023-01-10T09:03:48.878Z,100.00
2023-01-10T09:05:52.219Z,100.00
2023-01-10T09:07:59.449Z,100.00
2023-01-10T09:10:02.685Z,100.00
2023-01-10T09:12:26.583Z,100.00
2023-01-10T09:14:29.820Z,100.00
2023-01-10T09:16:33.033Z,100.00
2023-01-10T09:18:36.348Z,100.00
2023-01-10T09:20:40.432Z,100.00
2023-01-10T09:22:43.565Z,100.00
2023-01-10T09:24:48.530Z,100.00
2023-01-10T09:26:51.655Z,100.00
2023-01-10T09:28:54.903Z,100.00
2023-01-10T09:30:58.146Z,100.00
2023-01-10T09:33:01.762Z,100.00
2023-01-10T09:35:05.240Z,100.00
2023-01-10T09:37:08.602Z,100.00
2023-01-10T09:39:11.968Z,100.00
2023-01-10T09:41:28.983Z,100.00
2023-01-10T09:43:39.144Z,100.00
2023-01-10T09:45:46.870Z,100.00
2023-01-10T09:47:54.487Z,100.00
2023-01-10T09:50:02.887Z,100.00
2023-01-10T09:52:11.354Z,100.00
2023-01-10T09:54:18.107Z,100.00
2023-01-10T09:56:21.925Z,100.00
2023-01-10T09:58:28.193Z,100.00
2023-01-10T10:00:39.371Z,100.00
2023-01-10T10:02:45.970Z,100.00
2023-01-10T10:04:56.935Z,100.00
2023-01-10T10:07:00.212Z,100.00
2023-01-10T10:09:04.972Z,100.00
2023-01-10T10:11:12.094Z,100.00
2023-01-10T10:13:26.976Z,100.00
2023-01-10T10:15:36.294Z,100.00
2023-01-10T10:17:44.429Z,100.00
2023-01-10T10:19:54.237Z,100.00
2023-01-10T10:22:02.372Z,100.00
2023-01-10T10:24:19.568Z,100.00
2023-01-10T10:26:26.505Z,100.00
2023-01-10T10:28:54.033Z,100.00
2023-01-10T10:31:02.974Z,100.00
2023-01-10T10:33:20.580Z,100.00
2023-01-10T10:35:27.742Z,100.00
2023-01-10T10:37:34.093Z,100.00
2023-01-10T10:39:38.992Z,100.00
2023-01-10T10:41:44.432Z,100.00
2023-01-10T10:43:47.937Z,100.00
2023-01-10T10:45:54.206Z,100.00
2023-01-10T10:48:00.592Z,100.00
2023-01-10T10:50:08.351Z,100.00
2023-01-10T10:52:15.853Z,100.00
2023-01-10T10:54:19.165Z,100.00
2023-01-10T10:56:24.568Z,100.00
2023-01-10T10:58:30.908Z,100.00
2023-01-10T11:00:35.339Z,100.00
2023-01-10T11:02:41.778Z,100.00
2023-01-10T11:04:46.576Z,100.00
2023-01-10T11:06:50.170Z,100.00
2023-01-10T11:08:54.744Z,100.00
2023-01-10T11:10:58.733Z,100.00
2023-01-10T11:13:03.436Z,100.00
2023-01-10T11:15:07.462Z,100.00
2023-01-10T11:17:21.443Z,100.00
2023-01-10T11:19:25.760Z,100.00
2023-01-10T11:21:30.374Z,100.00
2023-01-10T11:23:39.345Z,100.00
2023-01-10T11:25:49.172Z,100.00
2023-01-10T11:27:53.746Z,100.00
2023-01-10T11:29:59.366Z,100.00
2023-01-10T11:32:09.659Z,100.00
2023-01-10T11:34:20.434Z,100.00
2023-01-10T11:36:23.730Z,100.00
2023-01-10T11:38:30.490Z,100.00
2023-01-10T11:40:34.083Z,100.00
2023-01-10T11:42:37.354Z,100.00
2023-01-10T11:44:40.729Z,100.00
2023-01-10T11:46:45.049Z,100.00
2023-01-10T11:49:08.863Z,100.00
2023-01-10T11:51:20.461Z,100.00
2023-01-10T11:53:37.804Z,100.00
2023-01-10T11:55:40.964Z,100.00
2023-01-10T11:57:44.297Z,100.00
2023-01-10T11:59:52.685Z,100.00
2023-01-10T12:01:58.095Z,100.00
2023-01-10T12:04:01.785Z,100.00
2023-01-10T12:06:07.522Z,100.00
2023-01-10T12:08:24.327Z,100.00
2023-01-10T12:10:30.054Z,100.00
2023-01-10T12:12:34.868Z,100.00
2023-01-10T12:14:38.195Z,100.00
2023-01-10T12:16:41.341Z,100.00
2023-01-10T12:18:44.860Z,100.00
2023-01-10T12:20:49.984Z,100.00
2023-01-10T12:22:57.061Z,100.00
2023-01-10T12:25:02.474Z,100.00
2023-01-10T12:27:09.115Z,100.00
2023-01-10T12:29:16.849Z,100.00
2023-01-10T12:31:21.847Z,100.00
2023-01-10T12:33:27.309Z,100.00
2023-01-10T12:35:38.171Z,100.00
2023-01-10T12:37:45.426Z,100.00
2023-01-10T12:39:50.701Z,100.00
2023-01-10T12:42:15.964Z,100.00
2023-01-10T12:44:24.880Z,100.00
2023-01-10T12:47:00.170Z,100.00
2023-01-10T12:48:57.458Z,100.00
2023-01-10T12:51:03.068Z,100.00
2023-01-10T12:53:08.376Z,100.00
2023-01-10T12:55:14.107Z,100.00
2023-01-10T12:57:23.217Z,100.00
2023-01-10T12:59:37.661Z,100.00
2023-01-10T13:01:43.338Z,100.00
2023-01-10T13:03:47.433Z,100.00
2023-01-10T13:05:52.307Z,100.00
2023-01-10T13:07:57.480Z,100.00
2023-01-10T13:10:02.889Z,100.00
2023-01-10T13:12:11.067Z,100.00
2023-01-10T13:14:16.422Z,100.00
2023-01-10T13:16:25.511Z,100.00
2023-01-10T13:18:29.581Z,100.00
2023-01-10T13:20:40.348Z,100.00
2023-01-10T13:22:44.415Z,100.00
2023-01-10T13:24:56.813Z,100.00
2023-01-10T13:27:02.200Z,100.00
2023-01-10T13:29:12.673Z,100.00
2023-01-10T13:31:25.516Z,100.00
2023-01-10T13:33:30.359Z,100.00
2023-01-10T13:35:41.051Z,100.00
2023-01-10T13:37:45.856Z,100.00
2023-01-10T13:39:53.160Z,100.00
2023-01-10T13:42:30.498Z,100.00
2023-01-10T13:44:53.773Z,100.00
2023-01-10T13:46:58.286Z,100.00
2023-01-10T13:49:34.721Z,100.00
2023-01-10T13:51:38.921Z,100.00
2023-01-10T13:53:47.113Z,100.00
2023-01-10T13:55:56.888Z,100.00
2023-01-10T13:58:01.091Z,100.00
2023-01-10T14:00:22.418Z,100.00
2023-01-10T14:02:30.123Z,100.00
2023-01-10T14:04:35.919Z,100.00
2023-01-10T14:06:43.155Z,100.00
2023-01-10T14:08:51.212Z,100.00
2023-01-10T14:11:06.663Z,100.00
2023-01-10T14:13:24.283Z,100.00
2023-01-10T14:15:30.048Z,100.00
2023-01-10T14:17:35.446Z,100.00
2023-01-10T14:19:39.559Z,100.00
2023-01-10T14:21:45.693Z,100.00
2023-01-10T14:23:53.369Z,100.00
2023-01-10T14:25:58.045Z,100.00
2023-01-10T14:28:02.123Z,100.00
2023-01-10T14:30:05.612Z,100.00
2023-01-10T14:32:17.743Z,100.00
2023-01-10T14:34:23.378Z,100.00
2023-01-10T14:36:28.639Z,100.00
2023-01-10T14:38:32.831Z,100.00
2023-01-10T14:40:41.082Z,100.00
2023-01-10T14:42:45.165Z,100.00
2023-01-10T14:44:52.470Z,100.00
2023-01-10T14:46:57.633Z,100.00
2023-01-10T14:49:01.826Z,100.00
2023-01-10T15:04:57.478Z,100.00
2023-01-10T15:07:03.111Z,100.00
2023-01-10T15:09:08.983Z,100.00
2023-01-10T15:11:35.134Z,100.00
2023-01-10T15:16:19.640Z,100.00
2023-01-10T15:18:33.695Z,100.00
2023-01-10T15:20:38.886Z,100.00
2023-01-10T15:22:43.749Z,100.00
2023-01-10T15:24:58.385Z,100.00
2023-01-10T15:27:17.874Z,100.00
2023-01-10T15:29:24.042Z,100.00
2023-01-10T15:31:34.241Z,100.00
2023-01-10T15:33:58.151Z,100.00
2023-01-10T15:38:44.769Z,100.00
2023-01-10T15:40:57.480Z,100.00
2023-01-10T15:43:25.396Z,100.00
2023-01-10T15:45:31.390Z,100.00
2023-01-10T15:47:40.881Z,100.00
2023-01-10T15:49:54.096Z,100.00
2023-01-10T15:51:59.035Z,100.00
2023-01-10T15:54:06.373Z,100.00
2023-01-10T15:56:12.413Z,100.00
2023-01-10T15:58:22.571Z,100.00
2023-01-10T16:00:27.004Z,100.00
2023-01-10T16:02:34.795Z,100.00
2023-01-10T16:04:44.672Z,100.00
2023-01-10T16:23:44.183Z,100.00
2023-01-10T16:25:49.520Z,100.00
2023-01-10T16:27:56.283Z,100.00
2023-01-10T16:29:59.481Z,100.00
2023-01-10T16:32:02.927Z,100.00
2023-01-10T16:34:06.126Z,100.00
2023-01-10T16:36:14.938Z,100.00
2023-01-10T16:38:18.577Z,100.00
2023-01-10T16:40:24.749Z,100.00
2023-01-10T16:42:45.298Z,100.00
2023-01-10T16:44:48.535Z,100.00
2023-01-10T16:46:53.213Z,100.00
2023-01-10T16:48:56.513Z,100.00
2023-01-10T16:51:06.402Z,100.00
2023-01-10T16:53:12.037Z,100.00
2023-01-10T16:55:16.290Z,100.00
2023-01-10T16:57:20.915Z,100.00
2023-01-10T16:59:24.086Z,100.00
2023-01-10T17:01:30.185Z,100.00
2023-01-10T17:03:37.882Z,100.00
2023-01-10T17:05:41.084Z,100.00
2023-01-10T17:07:44.458Z,100.00
2023-01-10T17:09:47.706Z,100.00
2023-01-10T17:11:54.686Z,100.00
2023-01-10T17:13:59.764Z,100.00
2023-01-10T17:16:03.034Z,100.00
2023-01-10T17:18:06.266Z,100.00
2023-01-10T17:20:10.887Z,100.00
2023-01-10T17:22:14.009Z,100.00
2023-01-10T17:24:17.347Z,100.00
2023-01-10T17:26:20.857Z,100.00
2023-01-10T17:28:24.260Z,100.00
2023-01-10T17:30:28.909Z,100.00
2023-01-10T17:32:32.162Z,100.00
2023-01-10T17:34:37.627Z,100.00
2023-01-10T17:36:40.815Z,100.00
2023-01-10T17:38:44.345Z,100.00
2023-01-10T17:40:48.649Z,100.00
2023-01-10T17:42:52.355Z,100.00
2023-01-10T17:44:55.572Z,100.00
2023-01-10T17:47:00.332Z,100.00
2023-01-10T17:49:03.615Z,100.00
2023-01-10T17:51:07.748Z,100.00
2023-01-10T17:53:11.455Z,100.00
2023-01-10T17:55:14.734Z,100.00
2023-01-10T17:57:17.923Z,100.00
2023-01-10T17:59:21.831Z,100.00
2023-01-10T18:01:25.920Z,100.00
2023-01-10T18:03:30.709Z,100.00
2023-01-10T18:05:35.380Z,100.00
2023-01-10T18:07:38.670Z,100.00
2023-01-10T18:09:41.860Z,100.00
2023-01-10T18:11:45.172Z,100.00
2023-01-10T18:13:48.376Z,100.00
2023-01-10T18:15:52.543Z,100.00
2023-01-10T18:17:55.699Z,100.00
2023-01-10T18:20:00.299Z,100.00
2023-01-10T18:22:26.397Z,100.00
2023-01-10T18:24:29.521Z,100.00
2023-01-10T18:26:32.796Z,100.00
2023-01-10T18:28:42.309Z,100.00
2023-01-10T18:30:45.993Z,100.00
2023-01-10T18:32:49.412Z,100.00
2023-01-10T18:34:52.573Z,100.00
2023-01-10T18:36:57.181Z,100.00
2023-01-10T18:39:00.357Z,100.00
2023-01-10T18:41:03.560Z,100.00
2023-01-10T18:43:06.727Z,100.00
2023-01-10T18:45:10.656Z,100.00
2023-01-10T18:47:13.763Z,100.00
2023-01-10T18:49:17.722Z,100.00
2023-01-10T18:51:22.798Z,100.00
2023-01-10T18:53:27.748Z,100.00
2023-01-10T18:55:30.840Z,100.00
2023-01-10T18:57:34.136Z,100.00
2023-01-10T18:59:39.788Z,100.00
2023-01-10T19:01:43.049Z,100.00
2023-01-10T19:03:47.209Z,100.00
2023-01-10T19:05:50.553Z,100.00
2023-01-10T19:07:54.029Z,100.00
2023-01-10T19:09:58.575Z,100.00
2023-01-10T19:12:01.915Z,100.00
2023-01-10T19:14:05.123Z,100.00
2023-01-10T19:16:15.453Z,100.00
2023-01-10T19:18:18.917Z,100.00
2023-01-10T19:20:22.274Z,100.00
2023-01-10T19:22:25.460Z,100.00
2023-01-10T19:24:29.850Z,100.00
2023-01-10T19:26:34.601Z,100.00
2023-01-10T19:28:37.739Z,100.00
2023-01-10T19:30:41.540Z,100.00
2023-01-10T19:32:44.897Z,100.00
2023-01-10T19:34:47.858Z,100.00
2023-01-10T19:36:50.946Z,100.00
2023-01-10T19:38:57.625Z,100.00
2023-01-10T19:41:00.774Z,100.00
2023-01-10T19:43:05.773Z,100.00
2023-01-10T19:45:09.482Z,100.00
2023-01-10T19:47:12.650Z,100.00
2023-01-10T19:49:17.903Z,100.00
2023-01-10T19:51:21.100Z,100.00
2023-01-10T19:53:27.309Z,100.00
2023-01-10T19:55:30.485Z,100.00
2023-01-10T19:57:33.991Z,100.00
2023-01-10T19:59:38.602Z,100.00
2023-01-10T20:01:42.439Z,100.00
2023-01-10T20:03:48.066Z,100.00
2023-01-10T20:06:01.352Z,100.00
2023-01-10T20:08:05.351Z,100.00
2023-01-10T20:10:17.827Z,100.00
2023-01-10T20:12:22.133Z,100.00
2023-01-10T20:14:26.450Z,100.00
2023-01-10T20:16:31.462Z,100.00
2023-01-10T20:20:56.408Z,100.00
2023-01-10T20:23:23.141Z,100.00
2023-01-10T20:25:29.699Z,100.00
2023-01-10T20:27:33.123Z,100.00
2023-01-10T20:29:45.828Z,100.00
2023-01-10T20:31:53.709Z,100.00
2023-01-10T20:33:57.386Z,100.00
2023-01-10T20:36:02.399Z,100.00
2023-01-10T20:38:07.712Z,100.00
2023-01-10T20:40:13.031Z,100.00
2023-01-10T20:42:35.030Z,100.00
2023-01-10T20:44:39.800Z,100.00
2023-01-10T20:53:38.467Z,100.00
2023-01-10T20:55:59.715Z,100.00
2023-01-10T20:58:03.917Z,100.00
2023-01-10T21:00:08.240Z,100.00
2023-01-10T21:02:12.564Z,100.00
2023-01-10T21:04:16.165Z,100.00
2023-01-10T21:06:20.635Z,100.00
2023-01-10T21:08:25.833Z,100.00
2023-01-10T21:10:29.490Z,100.00
2023-01-10T21:12:34.773Z,100.00
2023-01-10T21:14:38.415Z,100.00
2023-01-10T21:16:42.232Z,100.00
2023-01-10T21:18:46.148Z,100.00
2023-01-10T21:23:19.144Z,100.00
2023-01-10T21:25:44.263Z,100.00
2023-01-10T21:28:16.526Z,100.00
2023-01-10T21:30:24.093Z,99.58
2023-01-10T21:32:31.605Z,99.32
2023-01-10T21:34:38.672Z,99.27
2023-01-10T21:36:43.494Z,99.25
2023-01-10T21:38:57.237Z,99.36
2023-01-10T21:41:07.920Z,99.51
2023-01-10T21:43:14.192Z,98.86
2023-01-10T21:48:22.012Z,98.82
2023-01-10T21:50:41.539Z,98.34
2023-01-10T21:52:45.651Z,98.67
2023-01-10T21:54:49.677Z,98.44
2023-01-10T21:56:59.124Z,98.01
2023-01-10T21:59:10.716Z,96.59
2023-01-10T22:01:25.267Z,96.12
2023-01-10T22:03:31.438Z,95.67
2023-01-10T22:05:35.320Z,95.80
2023-01-10T22:07:39.241Z,95.92
2023-01-10T22:09:45.893Z,95.67
2023-01-10T22:11:52.437Z,94.92
2023-01-10T22:13:59.615Z,94.89
2023-01-10T22:16:04.899Z,94.71
2023-01-10T22:21:05.306Z,94.03
2023-01-10T22:23:15.932Z,93.04
2023-01-10T22:25:47.981Z,93.18
2023-01-10T22:27:53.805Z,93.01
2023-01-10T22:30:01.178Z,93.31
2023-01-10T22:32:07.109Z,93.69
2023-01-10T22:34:23.828Z,93.63
2023-01-10T22:36:27.845Z,94.06
2023-01-10T22:38:33.035Z,94.05
2023-01-10T22:40:36.418Z,93.72
2023-01-10T22:42:40.387Z,93.86
2023-01-10T22:44:48.067Z,93.72
2023-01-10T22:46:53.097Z,93.88
2023-01-10T22:52:18.375Z,94.01
2023-01-10T22:57:11.617Z,94.39
2023-01-10T22:59:23.964Z,94.47
2023-01-10T23:04:20.476Z,93.95
2023-01-10T23:06:38.360Z,93.78
2023-01-10T23:18:26.912Z,94.51
2023-01-10T23:23:18.106Z,93.73
2023-01-10T23:25:20.004Z,93.82
2023-01-10T23:38:01.157Z,94.66
2023-01-10T23:40:49.861Z,95.13
2023-01-10T23:42:55.720Z,95.71
2023-01-10T23:44:59.224Z,95.73
2023-01-10T23:47:03.439Z,96.27
2023-01-10T23:49:10.117Z,96.37
2023-01-10T23:52:52.845Z,96.54
